createdAt,value
2023-03-31T00:02:07.384Z,99304.09
2023-03-31T00:04:34.204Z,99255.94
2023-03-31T00:07:00.827Z,99292.44
2023-03-31T00:09:29.969Z,99243.38
2023-03-31T00:11:56.779Z,99233.22
2023-03-31T00:14:23.443Z,99239.59
2023-03-31T00:16:50.231Z,99299.66
2023-03-31T00:19:20.644Z,99311.34
2023-03-31T00:21:48.734Z,99302.25
2023-03-31T00:24:16.510Z,99296.84
2023-03-31T00:26:43.911Z,99203.94
2023-03-31T00:29:13.508Z,99253.19
2023-03-31T00:31:40.450Z,99218.03
2023-03-31T00:34:07.444Z,98914.94
2023-03-31T00:36:36.646Z,99292.78
2023-03-31T00:39:09.802Z,99403.09
2023-03-31T00:41:39.191Z,99301.91
2023-03-31T00:44:22.959Z,99268.53
2023-03-31T00:46:55.869Z,99291.72
2023-03-31T00:49:37.938Z,98824.41
2023-03-31T00:52:13.566Z,99270.34
2023-03-31T00:54:42.496Z,99296.16
2023-03-31T00:57:10.171Z,99295.72
2023-03-31T01:00:01.931Z,99297.91
2023-03-31T01:02:29.009Z,99291.56
2023-03-31T01:05:02.165Z,99238.69
2023-03-31T01:07:35.951Z,99286.31
2023-03-31T01:10:05.140Z,99296.69
2023-03-31T01:12:34.041Z,99260.28
2023-03-31T01:15:01.651Z,99283.72
2023-03-31T01:17:29.977Z,99287.19
2023-03-31T01:20:26.465Z,99282.06
2023-03-31T01:22:59.517Z,99284.16
2023-03-31T01:25:50.248Z,99273.34
2023-03-31T01:28:35.347Z,99267.09
2023-03-31T01:31:08.148Z,99281.25
2023-03-31T01:33:47.960Z,99311.13
2023-03-31T01:36:52.357Z,99273.59
2023-03-31T01:39:44.047Z,99273.91
2023-03-31T01:42:29.164Z,99268.31
2023-03-31T01:45:08.157Z,99269.75
2023-03-31T01:47:46.555Z,99264.16
2023-03-31T01:50:24.240Z,99263.53
2023-03-31T01:53:02.962Z,99268.75
2023-03-31T01:55:39.148Z,99284.06
2023-03-31T01:58:19.908Z,99202.13
2023-03-31T02:00:56.927Z,99256.03
2023-03-31T02:03:53.961Z,99151.16
2023-03-31T02:06:25.399Z,99274.06
2023-03-31T02:08:58.600Z,99101.53
2023-03-31T02:11:26.759Z,99222.81
2023-03-31T02:13:56.811Z,99199.75
2023-03-31T02:16:28.023Z,99273.91
2023-03-31T02:19:02.461Z,99271.28
2023-03-31T02:21:33.259Z,99263.00
2023-03-31T02:24:11.855Z,99185.84
2023-03-31T02:26:45.821Z,99216.97
2023-03-31T02:29:12.584Z,99394.25
2023-03-31T02:31:49.236Z,99169.94
2023-03-31T02:34:16.025Z,99257.94
2023-03-31T02:36:44.305Z,99075.16
2023-03-31T02:39:15.655Z,99026.69
2023-03-31T02:41:42.964Z,99259.47
2023-03-31T02:44:11.291Z,98901.25
2023-03-31T02:46:38.758Z,99261.44
2023-03-31T02:49:08.216Z,99263.09
2023-03-31T02:51:41.056Z,99268.56
2023-03-31T02:54:10.855Z,99261.03
2023-03-31T02:57:13.627Z,99265.13
2023-03-31T02:59:49.682Z,99265.53
2023-03-31T03:02:53.736Z,99270.16
2023-03-31T03:05:40.805Z,99270.41
2023-03-31T03:09:00.065Z,99273.25
2023-03-31T03:12:04.494Z,99217.78
2023-03-31T03:14:51.060Z,99277.19
2023-03-31T03:17:32.676Z,99271.69
2023-03-31T03:20:01.932Z,99243.94
2023-03-31T03:22:28.601Z,99272.19
2023-03-31T03:24:55.450Z,99270.22
2023-03-31T03:27:25.000Z,99274.59
2023-03-31T03:29:52.002Z,99252.66
2023-03-31T03:32:18.587Z,99266.78
2023-03-31T03:34:45.634Z,99204.38
2023-03-31T03:37:12.537Z,99274.25
2023-03-31T03:39:39.965Z,99266.16
2023-03-31T03:42:06.737Z,99276.25
2023-03-31T03:44:33.392Z,99207.44
2023-03-31T03:46:59.941Z,99273.44
2023-03-31T03:49:26.665Z,99287.78
2023-03-31T03:51:53.369Z,99167.72
2023-03-31T03:54:20.025Z,99270.72
2023-03-31T03:56:46.822Z,99207.66
2023-03-31T03:59:13.655Z,98828.19
2023-03-31T04:01:40.831Z,99134.06
2023-03-31T04:04:07.524Z,98896.81
2023-03-31T04:06:34.917Z,99278.03
2023-03-31T04:09:02.018Z,99278.75
2023-03-31T04:11:28.682Z,99280.91
2023-03-31T04:13:55.354Z,99234.66
2023-03-31T04:16:23.130Z,99285.22
2023-03-31T04:18:49.865Z,99269.84
2023-03-31T04:21:23.149Z,99286.88
2023-03-31T04:23:58.598Z,99264.38
2023-03-31T04:26:38.826Z,99274.50
2023-03-31T04:29:07.496Z,99323.75
2023-03-31T04:31:38.781Z,99287.88
2023-03-31T04:34:07.099Z,99294.19
2023-03-31T04:36:34.091Z,99284.06
2023-03-31T04:39:01.272Z,99293.47
2023-03-31T04:41:28.019Z,99293.16
2023-03-31T04:43:54.787Z,99291.00
2023-03-31T04:46:22.116Z,99289.84
2023-03-31T04:48:48.867Z,99294.50
2023-03-31T04:51:16.360Z,99292.94
2023-03-31T04:53:43.021Z,99294.38
2023-03-31T04:56:09.761Z,99299.78
2023-03-31T04:58:36.656Z,99303.56
2023-03-31T05:01:03.680Z,99296.94
2023-03-31T05:03:31.017Z,99150.81
2023-03-31T05:05:58.085Z,99294.53
2023-03-31T05:08:24.703Z,99280.94
2023-03-31T05:10:51.286Z,99083.13
2023-03-31T05:13:17.946Z,99073.59
2023-03-31T05:15:45.363Z,99302.31
2023-03-31T05:18:12.039Z,99310.84
2023-03-31T05:20:39.185Z,99306.06
2023-03-31T05:23:06.981Z,99096.38
2023-03-31T05:25:33.990Z,99311.94
2023-03-31T05:28:02.016Z,99266.13
2023-03-31T05:30:28.923Z,99309.16
2023-03-31T05:32:56.421Z,99212.94
2023-03-31T05:35:23.373Z,99179.66
2023-03-31T05:37:50.070Z,99316.75
2023-03-31T05:40:16.789Z,99270.41
2023-03-31T05:42:43.411Z,99093.91
2023-03-31T05:45:10.547Z,99320.72
2023-03-31T05:47:37.215Z,99329.00
2023-03-31T05:50:08.024Z,99298.94
2023-03-31T05:52:35.666Z,99329.63
2023-03-31T05:55:02.575Z,99333.16
2023-03-31T05:57:29.301Z,99400.75
2023-03-31T05:59:56.054Z,99331.66
2023-03-31T06:02:22.808Z,99329.41
2023-03-31T06:04:50.228Z,99188.16
2023-03-31T06:07:17.901Z,98949.25
2023-03-31T06:09:45.734Z,99069.78
2023-03-31T06:12:12.364Z,99332.13
2023-03-31T06:14:39.023Z,99306.16
2023-03-31T06:17:05.813Z,99338.22
2023-03-31T06:19:32.430Z,99329.16
2023-03-31T06:21:59.100Z,99464.41
2023-03-31T06:24:25.733Z,99339.25
2023-03-31T06:26:53.783Z,99338.53
2023-03-31T06:29:20.788Z,99290.34
2023-03-31T06:31:47.643Z,99351.38
2023-03-31T06:34:14.423Z,99335.28
2023-03-31T06:36:42.023Z,99350.25
2023-03-31T06:39:08.761Z,99311.44
2023-03-31T06:44:02.112Z,99324.34
2023-03-31T06:46:28.903Z,99161.06
2023-03-31T06:48:55.460Z,99368.41
2023-03-31T06:51:22.189Z,99302.03
2023-03-31T06:53:48.733Z,99373.78
2023-03-31T06:56:15.804Z,99378.72
2023-03-31T06:58:42.400Z,99376.97
2023-03-31T07:01:11.155Z,99379.34
2023-03-31T07:03:38.137Z,99385.22
2023-03-31T07:06:05.007Z,99344.25
2023-03-31T07:08:31.572Z,99371.69
2023-03-31T07:10:59.900Z,99351.31
2023-03-31T07:13:27.414Z,99379.56
2023-03-31T07:15:54.659Z,99385.78
2023-03-31T07:18:21.940Z,99381.94
2023-03-31T07:20:50.605Z,99381.94
2023-03-31T07:23:17.703Z,99389.03
2023-03-31T07:25:45.403Z,99399.22
2023-03-31T07:28:12.201Z,99391.88
2023-03-31T07:30:40.117Z,99417.41
2023-03-31T07:33:07.565Z,99287.38
2023-03-31T07:35:37.897Z,99391.50
2023-03-31T07:38:04.557Z,99380.69
2023-03-31T07:40:31.210Z,99383.53
2023-03-31T07:42:57.916Z,99406.38
2023-03-31T07:45:26.104Z,99377.38
2023-03-31T07:47:53.212Z,99378.56
2023-03-31T07:50:20.758Z,99355.72
2023-03-31T07:52:49.918Z,99383.25
2023-03-31T07:55:16.738Z,99387.56
2023-03-31T07:57:46.156Z,99395.00
2023-03-31T08:00:13.908Z,99218.69
2023-03-31T08:02:42.906Z,99403.31
2023-03-31T08:05:12.018Z,99401.38
2023-03-31T08:07:41.815Z,99238.50
2023-03-31T08:10:11.751Z,99343.41
2023-03-31T08:12:38.500Z,99401.09
2023-03-31T08:15:05.882Z,99392.38
2023-03-31T08:17:32.706Z,99396.47
2023-03-31T08:20:03.769Z,99403.91
2023-03-31T08:22:32.861Z,99401.63
2023-03-31T08:24:59.561Z,99351.38
2023-03-31T08:27:26.217Z,99405.41
2023-03-31T08:29:52.887Z,99402.50
2023-03-31T08:32:23.165Z,99365.59
2023-03-31T08:34:50.036Z,99417.16
2023-03-31T08:37:16.675Z,99415.66
2023-03-31T08:39:43.279Z,99419.66
2023-03-31T08:42:25.638Z,99419.56
2023-03-31T08:45:03.435Z,99428.72
2023-03-31T08:47:32.992Z,99423.63
2023-03-31T08:50:06.928Z,99338.75
2023-03-31T08:52:39.969Z,99407.31
2023-03-31T08:55:13.706Z,99286.78
2023-03-31T08:57:51.720Z,99411.19
2023-03-31T09:00:19.507Z,99418.00
2023-03-31T09:03:08.132Z,99393.69
2023-03-31T09:06:00.751Z,99411.66
2023-03-31T09:08:35.728Z,99416.31
2023-03-31T09:11:08.144Z,99407.41
2023-03-31T09:13:44.992Z,99412.47
2023-03-31T09:16:16.718Z,99418.66
2023-03-31T09:18:46.865Z,99445.16
2023-03-31T09:21:21.123Z,99424.25
2023-03-31T09:24:00.188Z,99418.56
2023-03-31T09:26:38.465Z,99416.72
2023-03-31T09:29:15.514Z,99217.06
2023-03-31T09:31:44.631Z,99389.03
2023-03-31T09:34:26.621Z,99420.78
2023-03-31T09:36:53.273Z,99437.00
2023-03-31T09:39:20.009Z,99404.66
2023-03-31T09:41:50.137Z,99434.09
2023-03-31T09:44:25.996Z,99424.88
2023-03-31T09:46:53.840Z,99310.03
2023-03-31T09:49:23.166Z,99427.91
2023-03-31T09:52:01.705Z,99415.47
2023-03-31T09:54:38.524Z,99424.16
2023-03-31T09:57:24.281Z,99368.66
2023-03-31T09:59:52.122Z,99412.13
2023-03-31T10:02:37.640Z,99409.47
2023-03-31T10:05:06.936Z,99414.38
2023-03-31T10:07:35.074Z,99407.56
2023-03-31T10:10:02.241Z,99391.78
2023-03-31T10:12:31.105Z,99404.47
2023-03-31T10:15:27.666Z,99405.47
2023-03-31T10:17:57.853Z,99365.78
2023-03-31T10:20:58.204Z,99407.56
2023-03-31T10:23:29.261Z,99404.16
2023-03-31T10:25:56.581Z,99238.34
2023-03-31T10:28:23.586Z,99399.94
2023-03-31T10:30:56.251Z,99403.72
2023-03-31T10:33:25.740Z,99400.44
2023-03-31T10:35:57.775Z,99402.00
2023-03-31T10:38:35.385Z,99398.78
2023-03-31T10:41:02.688Z,99387.88
2023-03-31T10:43:37.402Z,99401.88
2023-03-31T10:46:04.380Z,99380.88
2023-03-31T10:48:33.498Z,99402.72
2023-03-31T10:51:14.797Z,99399.09
2023-03-31T10:53:47.348Z,99393.63
2023-03-31T10:56:23.762Z,99389.94
2023-03-31T10:59:22.885Z,99391.44
2023-03-31T11:02:13.670Z,99386.00
2023-03-31T11:04:52.392Z,99387.53
2023-03-31T11:07:29.851Z,99386.19
2023-03-31T11:10:03.431Z,99335.59
2023-03-31T11:12:54.557Z,99391.31
2023-03-31T11:15:36.246Z,99357.84
2023-03-31T11:18:43.323Z,99359.72
2023-03-31T11:21:45.359Z,99375.56
2023-03-31T11:24:38.456Z,99378.03
2023-03-31T11:27:17.500Z,99376.78
2023-03-31T11:30:26.157Z,99375.72
2023-03-31T11:32:52.866Z,99362.31
2023-03-31T11:35:35.664Z,99369.19
2023-03-31T11:38:24.725Z,99373.66
2023-03-31T11:41:00.074Z,99366.72
2023-03-31T11:43:33.974Z,99372.50
2023-03-31T11:46:08.571Z,99159.38
2023-03-31T11:48:55.213Z,99381.56
2023-03-31T11:51:42.562Z,99374.31
2023-03-31T11:54:21.493Z,99262.66
2023-03-31T11:56:49.225Z,99379.41
2023-03-31T11:59:19.445Z,99372.16
2023-03-31T12:01:57.795Z,99385.94
2023-03-31T12:04:30.431Z,99364.00
2023-03-31T12:07:04.309Z,99322.16
2023-03-31T12:10:05.849Z,99358.38
2023-03-31T12:12:39.073Z,99357.56
2023-03-31T12:15:27.437Z,99370.84
2023-03-31T12:18:17.955Z,99357.09
2023-03-31T12:20:53.482Z,99247.00
2023-03-31T12:23:24.963Z,99187.09
2023-03-31T12:26:16.988Z,99340.56
2023-03-31T12:28:45.950Z,99336.69
2023-03-31T12:31:22.853Z,99340.34
2023-03-31T12:33:57.316Z,99461.72
2023-03-31T12:36:32.778Z,99335.81
2023-03-31T12:39:31.815Z,99340.88
2023-03-31T12:42:04.438Z,99333.81
2023-03-31T12:44:43.164Z,99336.03
2023-03-31T12:47:58.010Z,99333.13
2023-03-31T12:50:51.468Z,99331.03
2023-03-31T12:53:42.197Z,99330.31
2023-03-31T12:56:08.909Z,99344.78
2023-03-31T12:58:47.001Z,99289.63
2023-03-31T13:01:21.602Z,99346.44
2023-03-31T13:04:10.183Z,99202.84
2023-03-31T13:06:36.818Z,99350.09
2023-03-31T13:09:11.504Z,99342.34
2023-03-31T13:11:47.895Z,99169.47
2023-03-31T13:14:27.435Z,99334.72
2023-03-31T13:17:20.188Z,99333.44
2023-03-31T13:19:47.433Z,98881.41
2023-03-31T13:22:32.734Z,99330.75
2023-03-31T13:25:30.785Z,99339.09
2023-03-31T13:27:59.423Z,99341.19
2023-03-31T13:30:43.915Z,99333.56
2023-03-31T13:33:17.768Z,99339.78
2023-03-31T13:35:50.154Z,99274.47
2023-03-31T13:38:51.270Z,99317.88
2023-03-31T13:41:59.769Z,99340.00
2023-03-31T13:44:52.887Z,99345.78
2023-03-31T13:47:34.521Z,99343.78
2023-03-31T13:50:17.573Z,99317.78
2023-03-31T13:52:56.229Z,99343.22
2023-03-31T13:55:48.650Z,99334.44
2023-03-31T13:58:34.196Z,99343.22
2023-03-31T14:01:23.474Z,99354.25
2023-03-31T14:04:08.098Z,99354.25
2023-03-31T14:06:45.280Z,99356.38
2023-03-31T14:09:23.859Z,99361.69
2023-03-31T14:11:50.769Z,99364.47
2023-03-31T14:14:19.236Z,99202.38
2023-03-31T14:16:46.004Z,99354.47
2023-03-31T14:19:49.958Z,99369.28
2023-03-31T14:22:19.950Z,99364.00
2023-03-31T14:25:17.434Z,99213.78
2023-03-31T14:27:58.555Z,99359.53
2023-03-31T14:30:48.244Z,98941.25
2023-03-31T14:33:26.153Z,99370.72
2023-03-31T14:36:01.930Z,99369.97
2023-03-31T14:38:30.157Z,99374.47
2023-03-31T14:41:01.040Z,99191.88
2023-03-31T14:43:33.880Z,99376.25
2023-03-31T14:46:11.005Z,99381.91
2023-03-31T14:48:45.958Z,99296.41
2023-03-31T14:51:16.127Z,99262.31
2023-03-31T14:53:45.984Z,99374.72
2023-03-31T14:56:15.813Z,99341.53
2023-03-31T14:58:48.366Z,99416.22
2023-03-31T15:01:19.022Z,99389.44
2023-03-31T15:03:46.999Z,99331.44
2023-03-31T15:06:14.224Z,99380.25
2023-03-31T15:08:41.257Z,99381.41
2023-03-31T15:11:15.414Z,99394.72
2023-03-31T15:13:52.961Z,99365.66
2023-03-31T15:16:44.269Z,99390.00
2023-03-31T15:19:33.542Z,99244.03
2023-03-31T15:22:20.923Z,99367.69
2023-03-31T15:24:47.683Z,99365.66
2023-03-31T15:27:20.542Z,99254.38
2023-03-31T15:29:58.216Z,99388.94
2023-03-31T15:32:27.790Z,99407.53
2023-03-31T15:34:57.344Z,99391.31
2023-03-31T15:37:37.359Z,99397.91
2023-03-31T15:40:09.089Z,99399.06
2023-03-31T15:42:37.067Z,99405.66
2023-03-31T15:45:21.775Z,99402.25
2023-03-31T15:47:54.188Z,99378.59
2023-03-31T15:50:23.857Z,99405.19
2023-03-31T15:52:54.651Z,99352.63
2023-03-31T15:55:29.480Z,99403.66
2023-03-31T15:57:58.878Z,99021.50
2023-03-31T16:00:31.641Z,99407.50
2023-03-31T16:03:00.398Z,99420.00
2023-03-31T16:08:44.583Z,99421.88
2023-03-31T16:11:17.483Z,99427.38
2023-03-31T16:13:49.101Z,99407.50
2023-03-31T16:16:19.126Z,99423.84
2023-03-31T16:18:51.102Z,99436.66
2023-03-31T16:21:30.401Z,99409.94
2023-03-31T16:23:59.326Z,99443.44
2023-03-31T16:26:28.277Z,99435.69
2023-03-31T16:28:57.684Z,99441.19
2023-03-31T16:31:31.082Z,99449.09
2023-03-31T16:33:58.059Z,99437.56
2023-03-31T16:36:24.951Z,99452.16
2023-03-31T16:38:53.862Z,99442.84
2023-03-31T16:41:23.325Z,99400.25
2023-03-31T16:43:52.625Z,99486.94
2023-03-31T16:46:19.503Z,99454.63
2023-03-31T16:48:46.434Z,99434.31
2023-03-31T16:51:13.483Z,99289.97
2023-03-31T16:53:40.370Z,99465.78
2023-03-31T16:56:08.292Z,99468.69
2023-03-31T16:58:36.600Z,99332.03
2023-03-31T17:01:04.674Z,99395.28
2023-03-31T17:03:31.897Z,99378.81
2023-03-31T17:06:03.724Z,99465.19
2023-03-31T17:08:31.315Z,99483.13
2023-03-31T17:11:05.325Z,99482.44
2023-03-31T17:13:33.757Z,99491.13
2023-03-31T17:16:08.618Z,99445.25
2023-03-31T17:18:42.619Z,99270.47
2023-03-31T17:21:13.649Z,99496.75
2023-03-31T17:23:41.204Z,99361.66
2023-03-31T17:26:12.918Z,99503.59
2023-03-31T17:28:40.337Z,99460.53
2023-03-31T17:31:21.492Z,99592.91
2023-03-31T17:33:48.675Z,99502.84
2023-03-31T17:36:16.693Z,99510.28
2023-03-31T17:38:43.442Z,99425.38
2023-03-31T17:41:12.928Z,99523.31
2023-03-31T17:43:40.092Z,99504.09
2023-03-31T17:46:12.922Z,99487.59
2023-03-31T17:48:41.317Z,99502.59
2023-03-31T17:51:10.576Z,99523.81
2023-03-31T17:53:37.300Z,99544.88
2023-03-31T17:56:05.052Z,99529.31
2023-03-31T17:58:32.660Z,99446.28
2023-03-31T18:00:59.553Z,99535.56
2023-03-31T18:03:29.532Z,99554.94
2023-03-31T18:05:57.052Z,99499.34
2023-03-31T18:08:23.889Z,99558.56
2023-03-31T18:10:50.661Z,99097.75
2023-03-31T18:13:17.470Z,99558.09
2023-03-31T18:15:51.493Z,99566.16
2023-03-31T18:18:19.298Z,99590.13
2023-03-31T18:20:46.011Z,99570.59
2023-03-31T18:23:13.113Z,99553.78
2023-03-31T18:25:43.957Z,99576.81
2023-03-31T18:28:10.979Z,99580.97
2023-03-31T18:30:37.863Z,99557.44
2023-03-31T18:33:05.089Z,99591.59
2023-03-31T18:35:32.125Z,99597.06
2023-03-31T18:37:58.972Z,99598.22
2023-03-31T18:40:25.561Z,99584.59
2023-03-31T18:42:52.432Z,99578.25
2023-03-31T18:45:19.044Z,99532.56
2023-03-31T18:47:45.696Z,99550.53
2023-03-31T18:50:13.968Z,99617.09
2023-03-31T18:52:41.201Z,99627.03
2023-03-31T18:55:08.190Z,99619.69
2023-03-31T18:57:34.933Z,99628.13
2023-03-31T19:00:01.802Z,99569.81
2023-03-31T19:02:28.696Z,99637.69
2023-03-31T19:04:55.426Z,99590.44
2023-03-31T19:07:22.104Z,99644.38
2023-03-31T19:09:49.095Z,99580.38
2023-03-31T19:12:16.570Z,99445.50
2023-03-31T19:14:43.973Z,99660.91
2023-03-31T19:17:11.653Z,99625.66
2023-03-31T19:19:38.243Z,99642.38
2023-03-31T19:22:05.204Z,99660.91
2023-03-31T19:24:31.885Z,99633.13
2023-03-31T19:26:58.532Z,99661.47
2023-03-31T19:29:25.383Z,99727.97
2023-03-31T19:31:52.252Z,99595.31
2023-03-31T19:34:19.035Z,99579.31
2023-03-31T19:36:45.678Z,99667.34
2023-03-31T19:39:12.610Z,99604.41
2023-03-31T19:41:39.337Z,99632.16
2023-03-31T19:44:06.121Z,99677.00
2023-03-31T19:46:32.848Z,99609.34
2023-03-31T19:48:59.473Z,99679.22
2023-03-31T19:51:27.622Z,99531.38
2023-03-31T19:53:54.489Z,99604.03
2023-03-31T19:56:25.100Z,99562.13
2023-03-31T19:58:52.563Z,99690.22
2023-03-31T20:01:22.825Z,99695.19
2023-03-31T20:03:53.017Z,99659.72
2023-03-31T20:06:23.286Z,99706.44
2023-03-31T20:08:55.433Z,99658.16
2023-03-31T20:11:22.399Z,99700.09
2023-03-31T20:13:49.113Z,99713.16
2023-03-31T20:16:19.288Z,99710.38
2023-03-31T20:18:51.767Z,99713.88
2023-03-31T20:21:20.613Z,99717.28
2023-03-31T20:23:47.896Z,99669.75
2023-03-31T20:26:16.755Z,99723.41
2023-03-31T20:28:43.681Z,99728.78
2023-03-31T20:31:14.901Z,99726.94
2023-03-31T20:33:42.630Z,99700.28
2023-03-31T20:36:15.260Z,99566.00
2023-03-31T20:38:44.459Z,99634.19
2023-03-31T20:41:11.571Z,99729.34
2023-03-31T20:43:38.771Z,99732.56
2023-03-31T20:46:07.462Z,99711.22
2023-03-31T20:48:42.453Z,99693.03
2023-03-31T20:51:12.233Z,99715.66
2023-03-31T20:53:42.269Z,99607.66
2023-03-31T20:56:19.766Z,99745.47
2023-03-31T20:58:47.486Z,99749.69
2023-03-31T21:01:14.881Z,99567.88
2023-03-31T21:03:42.311Z,99757.31
2023-03-31T21:06:12.059Z,99735.75
2023-03-31T21:08:42.874Z,99719.75
2023-03-31T21:11:10.037Z,99709.63
2023-03-31T21:13:37.078Z,99758.13
2023-03-31T21:16:04.825Z,99775.56
2023-03-31T21:18:33.792Z,99764.25
2023-03-31T21:21:03.442Z,99775.72
2023-03-31T21:23:30.939Z,99755.31
2023-03-31T21:25:59.637Z,99730.13
2023-03-31T21:28:28.662Z,99907.69
2023-03-31T21:31:19.824Z,99795.94
2023-03-31T21:33:46.919Z,99799.44
2023-03-31T21:36:16.505Z,99803.25
2023-03-31T21:38:44.744Z,99803.41
2023-03-31T21:41:13.902Z,99809.53
2023-03-31T21:43:41.649Z,99740.31
2023-03-31T21:46:09.092Z,99685.44
2023-03-31T21:48:35.877Z,99589.00
2023-03-31T21:51:03.213Z,99818.56
2023-03-31T21:53:31.468Z,99818.94
2023-03-31T21:55:58.773Z,99777.78
2023-03-31T21:58:28.646Z,99820.22
2023-03-31T22:00:57.675Z,99643.53
2023-03-31T22:03:34.000Z,99835.50
2023-03-31T22:06:03.502Z,99750.72
2023-03-31T22:08:31.666Z,99835.56
2023-03-31T22:11:00.210Z,99757.94
2023-03-31T22:13:28.011Z,99841.22
2023-03-31T22:15:55.155Z,99841.00
2023-03-31T22:18:22.612Z,99848.81
2023-03-31T22:20:50.402Z,99674.03
2023-03-31T22:23:17.201Z,99754.44
2023-03-31T22:25:43.864Z,99742.16
2023-03-31T22:28:10.841Z,99865.16
2023-03-31T22:30:37.795Z,99870.97
2023-03-31T22:33:04.457Z,99809.75
2023-03-31T22:35:31.417Z,99864.41
2023-03-31T22:37:58.363Z,99979.47
2023-03-31T22:40:25.034Z,99401.38
2023-03-31T22:42:54.636Z,99824.75
2023-03-31T22:45:21.464Z,99741.38
2023-03-31T22:47:48.143Z,99891.47
2023-03-31T22:50:14.957Z,99883.81
2023-03-31T22:52:41.536Z,99527.63
2023-03-31T22:55:08.227Z,99881.59
2023-03-31T22:57:34.937Z,99886.91
2023-03-31T23:00:01.746Z,99877.16
2023-03-31T23:02:28.420Z,99889.47
2023-03-31T23:04:55.389Z,99707.84
2023-03-31T23:07:22.271Z,99887.44
2023-03-31T23:09:49.144Z,99911.91
2023-03-31T23:12:15.951Z,99781.84
2023-03-31T23:14:42.609Z,99892.72
2023-03-31T23:17:09.296Z,99893.63
2023-03-31T23:19:37.127Z,99855.28
2023-03-31T23:22:03.816Z,99736.09
2023-03-31T23:24:30.568Z,99910.75
2023-03-31T23:26:57.235Z,99906.09
2023-03-31T23:29:24.000Z,99903.00
2023-03-31T23:31:50.703Z,99847.47
2023-03-31T23:34:17.660Z,99912.28
2023-03-31T23:36:44.278Z,99857.78
2023-03-31T23:39:11.057Z,99854.25
2023-03-31T23:41:37.765Z,99855.19
2023-03-31T23:44:04.757Z,99939.44
2023-03-31T23:46:33.495Z,99920.19
2023-03-31T23:49:02.675Z,99799.34
2023-03-31T23:51:29.351Z,99838.94
2023-03-31T23:53:56.263Z,99778.06
2023-03-31T23:56:23.130Z,99825.16
2023-03-31T23:58:49.957Z,99926.34
